Time;durP1;ratioP1;P1;durP2;ratioP2;P2;SDS_P1;SDS_P2;PMS_P1;PMS_P2;Temp;Humidity;BMP_temperature;BMP_pressure;BME280_temperature;BME280_humidity;BME280_pressure;Samples;Min_cycle;Max_cycle;Signal;HPM_P1;HPM_P2
2023/05/21 00:00:41;;;;;;;22.50;20.00;;;14.90;99.90;;;-141.84;76.60;20397.16;5030353;28;20625;-67
2023/05/21 00:03:12;;;;;;;22.63;19.85;;;14.80;99.90;;;-141.84;76.58;20356.50;5030569;28;20301;-68
2023/05/21 00:05:41;;;;;;;21.33;19.13;;;14.80;99.90;;;-141.84;77.01;20360.59;5030349;28;20650;-67
2023/05/21 00:08:09;;;;;;;22.60;19.67;;;14.70;99.90;;;-141.84;77.28;20395.13;5030597;28;20596;-67
2023/05/21 00:10:37;;;;;;;22.92;20.38;;;14.70;99.90;;;-141.84;77.24;20397.16;5030320;28;20313;-67
2023/05/21 00:13:07;;;;;;;25.45;20.45;;;14.70;99.90;;;-141.84;77.39;20352.44;5030124;28;20260;-68
2023/05/21 00:15:37;;;;;;;22.70;20.03;;;14.70;99.90;;;-141.84;76.79;20384.97;5030325;28;20306;-67
2023/05/21 00:18:06;;;;;;;23.27;20.10;;;14.70;99.90;;;-141.84;76.74;20387.00;5029976;28;20741;-67
2023/05/21 00:20:34;;;;;;;22.75;19.92;;;14.70;99.90;;;-141.84;76.43;20366.69;5030453;28;20202;-67
2023/05/21 00:23:02;;;;;;;21.50;19.20;;;14.70;99.90;;;-141.84;77.34;20328.06;5029902;28;20206;-68
2023/05/21 00:25:31;;;;;;;23.92;19.83;;;14.70;99.90;;;-141.84;77.59;20362.63;5030378;28;20206;-67
2023/05/21 00:27:59;;;;;;;25.73;21.40;;;14.60;99.90;;;-141.84;77.76;20350.41;5029840;28;20206;-68
2023/05/21 00:30:27;;;;;;;22.80;20.40;;;14.60;99.90;;;-141.84;77.28;20350.41;5030221;28;20563;-67
2023/05/21 00:33:01;;;;;;;22.83;20.33;;;14.60;99.90;;;-141.84;76.51;20421.56;5029584;28;20324;-67
2023/05/21 00:35:30;;;;;;;22.60;20.30;;;14.60;99.90;;;-141.84;77.46;20387.00;5026454;28;20341;-67
2023/05/21 00:37:59;;;;;;;24.47;20.80;;;14.60;99.90;;;-141.84;77.67;20324.00;5026562;28;20230;-68
2023/05/21 00:40:27;;;;;;;25.10;21.80;;;14.60;99.90;;;-141.84;77.48;20346.34;5030321;28;20198;-67
2023/05/21 00:42:56;;;;;;;24.70;20.88;;;14.60;99.90;;;-141.84;77.55;20399.19;5030030;28;20198;-68
2023/05/21 00:45:24;;;;;;;23.80;20.67;;;14.60;99.90;;;-141.84;77.93;20326.03;5030154;28;20213;-67
2023/05/21 00:47:54;;;;;;;23.27;20.80;;;14.50;99.90;;;-141.84;77.54;20380.91;5030019;28;20198;-68
2023/05/21 00:50:24;;;;;;;22.93;19.70;;;14.50;99.90;;;-141.84;78.04;20350.41;5030176;28;20198;-68
2023/05/21 00:52:53;;;;;;;23.85;21.23;;;14.60;99.90;;;-141.84;78.02;20356.50;5033933;28;20274;-67
2023/05/21 00:55:21;;;;;;;23.05;20.58;;;14.50;99.90;;;-141.84;78.18;20315.88;5033647;28;20229;-68
2023/05/21 00:57:50;;;;;;;24.47;20.97;;;14.40;99.90;;;-141.84;78.09;20374.81;5033923;28;20634;-68
2023/05/21 01:00:19;;;;;;;22.90;20.48;;;14.40;99.90;;;-141.84;78.66;20332.13;5033427;28;20685;-68
2023/05/21 01:02:48;;;;;;;22.90;20.50;;;14.40;99.90;;;-141.84;79.21;20326.03;5033781;28;20202;-67
2023/05/21 01:05:17;;;;;;;24.77;21.63;;;14.30;99.90;;;-141.84;79.72;20271.16;5033511;28;20202;-68
2023/05/21 01:07:47;;;;;;;25.03;22.17;;;14.30;99.90;;;-141.84;79.23;20315.88;5033894;28;20198;-67
2023/05/21 01:10:15;;;;;;;24.90;21.53;;;14.30;99.90;;;-141.84;78.71;20324.00;5033684;28;20198;-67
2023/05/21 01:12:46;;;;;;;24.10;21.25;;;14.30;99.90;;;-141.84;78.57;20315.88;5033548;28;20708;-67
2023/05/21 01:15:14;;;;;;;24.33;21.02;;;14.30;99.90;;;-141.84;79.42;20326.03;5033348;28;20194;-67
2023/05/21 01:17:44;;;;;;;24.10;21.33;;;14.30;99.90;;;-141.84;78.81;20279.28;5033450;28;20697;-69
2023/05/21 01:20:17;;;;;;;24.83;21.87;;;14.30;99.90;;;-141.84;78.97;20358.56;5033449;28;20186;-68
2023/05/21 01:22:53;;;;;;;23.27;20.80;;;14.30;99.90;;;-141.84;78.41;20324.00;5033272;28;20183;-67
2023/05/21 01:25:22;;;;;;;24.70;21.30;;;14.30;99.90;;;-141.84;79.19;20305.69;5032918;28;20221;-67
2023/05/21 01:27:50;;;;;;;25.02;21.48;;;14.30;99.90;;;-141.84;79.53;20281.31;5033345;28;20206;-67
2023/05/21 01:30:21;;;;;;;27.70;22.13;;;14.20;99.90;;;-141.84;79.04;20291.47;5032831;28;20256;-68
2023/05/21 01:33:02;;;;;;;23.63;20.42;;;14.20;99.90;;;-141.84;79.68;20265.03;5032663;28;20303;-68
2023/05/21 01:35:35;;;;;;;23.92;21.02;;;14.20;99.90;;;-141.84;79.96;20295.53;5028893;28;20602;-68
2023/05/21 01:38:16;;;;;;;24.98;22.17;;;14.20;99.90;;;-141.84;80.63;20252.84;5029958;28;20201;-67
2023/05/21 01:40:53;;;;;;;25.07;21.70;;;14.10;99.90;;;-141.84;79.26;20277.25;5032804;28;20773;-67
2023/05/21 01:43:24;;;;;;;24.17;21.40;;;14.20;99.90;;;-141.84;80.18;20238.63;5030039;28;20217;-66
2023/05/21 01:45:55;;;;;;;25.73;21.27;;;14.10;99.90;;;-141.84;80.88;20236.59;5032633;28;20244;-67
2023/05/21 01:48:27;;;;;;;25.20;21.90;;;14.00;99.90;;;-141.84;80.44;20222.38;5032515;28;20233;-67
2023/05/21 01:50:57;;;;;;;25.23;22.20;;;14.10;99.90;;;-141.84;80.71;20248.78;5032547;28;20607;-67
2023/05/21 01:53:27;;;;;;;26.67;22.30;;;14.00;99.90;;;-141.84;80.97;20244.72;5032999;28;20586;-68
2023/05/21 01:55:55;;;;;;;26.23;21.93;;;14.00;99.90;;;-141.84;81.43;20283.34;5032499;28;20640;-66
2023/05/21 01:58:23;;;;;;;26.95;22.48;;;13.90;99.90;;;-141.84;81.53;20265.03;5032421;28;20276;-66
2023/05/21 02:00:52;;;;;;;26.43;23.33;;;13.90;99.90;;;-141.84;80.91;20256.91;5032460;28;20206;-67
2023/05/21 02:03:20;;;;;;;27.43;23.43;;;14.00;99.90;;;-141.84;81.27;20220.34;5032223;28;20209;-68
2023/05/21 02:05:50;;;;;;;27.40;22.80;;;13.90;99.90;;;-141.84;81.00;20210.16;5032597;28;20264;-68
2023/05/21 02:08:19;;;;;;;25.93;23.13;;;13.90;99.90;;;-141.84;81.62;20212.19;5032513;28;20213;-67
2023/05/21 02:10:49;;;;;;;26.70;22.57;;;13.80;99.90;;;-141.84;81.96;20214.22;5032469;28;20213;-67
2023/05/21 02:13:19;;;;;;;28.10;22.90;;;13.80;99.90;;;-141.84;82.15;20189.84;5032437;28;20250;-67
2023/05/21 02:15:47;;;;;;;29.20;22.57;;;13.70;99.90;;;-141.84;82.22;20193.91;5032435;28;20182;-68
2023/05/21 02:18:17;;;;;;;28.60;23.93;;;13.70;99.90;;;-141.84;82.63;20187.81;5032661;28;20565;-66
2023/05/21 02:20:45;;;;;;;28.67;23.47;;;13.60;99.90;;;-141.84;83.49;20153.25;5032058;28;20280;-68
2023/05/21 02:23:13;;;;;;;26.93;23.47;;;13.50;99.90;;;-141.84;83.18;20230.50;5032325;28;20202;-67
2023/05/21 02:25:41;;;;;;;26.57;22.57;;;13.50;99.90;;;-141.84;83.35;20155.28;5031632;28;20229;-67
2023/05/21 02:28:11;;;;;;;26.30;22.37;;;13.50;99.90;;;-141.84;83.80;20167.47;5032150;28;20208;-67
2023/05/21 02:30:39;;;;;;;27.63;22.80;;;13.40;99.90;;;-141.84;84.10;20163.41;5031711;28;20203;-67
2023/05/21 02:33:08;;;;;;;27.10;23.50;;;13.40;99.90;;;-141.84;84.37;20137.00;5031686;28;20288;-68
2023/05/21 02:35:37;;;;;;;27.30;23.77;;;13.40;99.90;;;-141.84;84.92;20128.88;5031656;28;20221;-68
2023/05/21 02:38:08;;;;;;;25.87;23.07;;;13.30;99.90;;;-141.84;85.24;20120.75;5031839;28;20202;-67
2023/05/21 02:40:36;;;;;;;28.10;24.03;;;13.20;99.90;;;-141.84;85.29;20134.97;5031719;28;20277;-68
2023/05/21 02:43:04;;;;;;;31.60;24.80;;;13.30;99.90;;;-141.84;85.10;20128.88;5031613;28;20278;-68
2023/05/21 02:45:33;;;;;;;27.83;24.63;;;13.30;99.90;;;-141.84;84.83;20137.00;5031685;28;20412;-68
2023/05/21 02:48:02;;;;;;;26.97;23.07;;;13.30;99.90;;;-141.84;84.78;20163.41;5031577;28;20206;-68
2023/05/21 02:50:30;;;;;;;26.07;22.83;;;13.30;99.90;;;-141.84;84.52;20147.16;5031539;28;20209;-67
2023/05/21 02:52:59;;;;;;;28.27;23.43;;;13.30;99.90;;;-141.84;84.71;20153.25;5031665;28;20228;-68
2023/05/21 02:55:27;;;;;;;28.37;23.63;;;13.30;99.90;;;-141.84;84.91;20155.28;5031216;28;20292;-68
2023/05/21 02:57:55;;;;;;;25.83;23.07;;;13.30;99.90;;;-141.84;84.95;20106.50;5031561;28;20248;-67
2023/05/21 03:00:23;;;;;;;27.33;22.90;;;13.20;99.90;;;-141.84;84.98;20116.66;5030920;28;20209;-68
2023/05/21 03:02:53;;;;;;;28.30;23.93;;;13.30;99.90;;;-141.84;85.19;20126.84;5031270;28;20234;-68
2023/05/21 03:05:21;;;;;;;28.60;24.90;;;13.20;99.90;;;-141.84;85.26;20141.06;5031712;28;20204;-68
2023/05/21 03:07:50;;;;;;;28.10;24.37;;;13.30;99.90;;;-141.84;84.61;20185.78;5031340;28;20206;-68
2023/05/21 03:10:18;;;;;;;28.50;24.63;;;13.30;99.90;;;-141.84;84.68;20128.88;5031276;28;20198;-67
2023/05/21 03:12:46;;;;;;;28.57;23.93;;;13.30;99.90;;;-141.84;83.98;20173.59;5031113;28;20606;-68
2023/05/21 03:15:15;;;;;;;27.57;22.83;;;13.30;99.90;;;-141.84;84.70;20153.25;5030420;28;20293;-68
2023/05/21 03:17:43;;;;;;;28.53;24.73;;;13.30;99.90;;;-141.84;83.78;20175.63;5030794;28;20276;-66
2023/05/21 03:20:15;;;;;;;26.77;23.37;;;13.40;99.90;;;-141.84;84.35;20159.34;5031458;28;20202;-68
2023/05/21 03:22:44;;;;;;;27.33;23.37;;;13.30;99.90;;;-141.84;84.83;20153.25;5030756;28;20209;-70
2023/05/21 03:25:13;;;;;;;30.33;24.80;;;13.30;99.90;;;-141.84;84.88;20126.84;5031027;28;20297;-68
2023/05/21 03:27:41;;;;;;;28.73;24.27;;;13.30;99.90;;;-141.84;84.88;20149.19;5030802;28;20297;-68
2023/05/21 03:30:11;;;;;;;27.63;23.90;;;13.30;99.90;;;-141.84;85.45;20132.94;5030581;28;20685;-68
2023/05/21 03:32:40;;;;;;;28.73;24.47;;;13.30;99.90;;;-141.84;85.14;20112.59;5030209;28;20648;-69
2023/05/21 03:35:08;;;;;;;32.00;24.47;;;13.30;99.90;;;-141.84;85.28;20137.00;5030848;28;20206;-68
2023/05/21 03:37:38;;;;;;;29.83;25.00;;;13.30;99.90;;;-141.84;85.01;20132.94;5030712;28;20260;-69
2023/05/21 03:40:08;;;;;;;27.70;23.27;;;13.40;99.90;;;-141.84;84.96;20141.06;5030997;28;20245;-67
2023/05/21 03:42:36;;;;;;;28.93;24.23;;;13.40;99.90;;;-141.84;85.23;20155.28;5030175;28;20202;-67
2023/05/21 03:45:07;;;;;;;28.87;24.40;;;13.40;99.90;;;-141.84;85.17;20096.34;5030377;28;20202;-68
2023/05/21 03:47:35;;;;;;;29.00;23.50;;;13.30;99.90;;;-141.84;85.03;20128.88;5030547;28;20186;-67
2023/05/21 03:50:05;;;;;;;28.30;24.63;;;13.40;99.90;;;-141.84;84.25;20159.34;5030689;28;20300;-68
2023/05/21 03:52:33;;;;;;;28.93;24.60;;;13.40;99.90;;;-141.84;84.58;20137.00;5030526;28;20308;-67
2023/05/21 03:55:02;;;;;;;29.83;24.50;;;13.40;99.90;;;-141.84;84.00;20126.84;5030643;28;20230;-69
2023/05/21 03:57:31;;;;;;;25.85;23.00;;;13.40;99.90;;;-141.84;84.66;20157.31;5030568;28;20241;-67
2023/05/21 03:59:59;;;;;;;27.27;23.97;;;13.40;99.90;;;-141.84;84.47;20167.47;5030523;28;20240;-67
2023/05/21 04:02:27;;;;;;;34.43;24.07;;;13.50;99.90;;;-141.84;84.56;20147.16;5030369;28;20248;-68
2023/05/21 04:04:56;;;;;;;28.47;23.70;;;13.50;99.90;;;-141.84;84.28;20145.13;5030627;28;20576;-68
2023/05/21 04:07:25;;;;;;;28.93;23.60;;;13.50;99.90;;;-141.84;84.19;20167.47;5030290;28;20690;-68
2023/05/21 04:09:54;;;;;;;27.07;23.30;;;13.40;99.90;;;-141.84;83.71;20175.63;5030138;28;20289;-68
2023/05/21 04:12:23;;;;;;;27.13;24.13;;;13.60;99.90;;;-141.84;83.02;20206.09;5030202;28;20289;-67
2023/05/21 04:14:51;;;;;;;26.57;22.97;;;13.60;99.90;;;-141.84;83.06;20175.63;5029888;28;20229;-68
2023/05/21 04:17:20;;;;;;;29.03;24.13;;;13.70;99.90;;;-141.84;82.33;20232.53;5030164;28;20210;-67
2023/05/21 04:19:48;;;;;;;29.33;23.67;;;13.90;99.90;;;-141.84;80.90;20267.09;5030560;28;20568;-67
2023/05/21 04:22:16;;;;;;;27.98;24.08;;;14.00;99.90;;;-141.84;79.49;20252.84;5030389;28;20202;-67
2023/05/21 04:24:45;;;;;;;26.65;22.60;;;14.00;99.90;;;-141.84;79.54;20244.72;5030738;28;20240;-68
2023/05/21 04:27:15;;;;;;;28.05;24.15;;;14.10;99.90;;;-141.84;79.51;20250.81;5034239;28;20206;-68
2023/05/21 04:29:45;;;;;;;24.98;21.85;;;14.20;99.90;;;-141.84;79.70;20248.78;5033973;28;20206;-68
2023/05/21 04:32:13;;;;;;;27.63;22.63;;;14.30;99.90;;;-141.84;78.91;20260.97;5033626;28;20333;-68
2023/05/21 04:34:42;;;;;;;25.70;22.90;;;14.40;99.90;;;-141.84;78.31;20330.09;5034123;28;20218;-68
2023/05/21 04:37:10;;;;;;;25.65;22.95;;;14.40;99.90;;;-141.84;77.59;20338.22;5033801;28;20758;-68
2023/05/21 04:39:40;;;;;;;26.90;23.25;;;14.40;99.90;;;-141.84;77.50;20334.16;5033963;28;20629;-68
2023/05/21 04:42:09;;;;;;;24.73;22.10;;;14.50;99.90;;;-141.84;77.37;20348.38;5033786;28;20701;-68
2023/05/21 04:44:39;;;;;;;28.17;22.90;;;14.60;99.90;;;-141.84;76.89;20350.41;5033401;28;20206;-68
2023/05/21 04:47:09;;;;;;;26.53;23.17;;;14.60;99.90;;;-141.84;77.14;20393.09;5034046;28;20237;-67
2023/05/21 04:49:37;;;;;;;27.75;22.17;;;14.60;99.90;;;-141.84;76.18;20382.94;5034335;28;20214;-67
2023/05/21 04:52:07;;;;;;;24.95;22.20;;;14.70;99.90;;;-141.84;76.21;20389.03;5034117;28;20205;-67
2023/05/21 04:54:35;;;;;;;24.70;21.83;;;14.80;99.90;;;-141.84;75.98;20407.34;5033740;28;20226;-68
2023/05/21 04:57:03;;;;;;;26.52;22.73;;;14.90;99.90;;;-141.84;75.69;20384.97;5033905;28;20288;-68
2023/05/21 04:59:31;;;;;;;25.63;22.33;;;15.00;99.90;;;-141.84;75.22;20411.41;5033433;28;20646;-67
2023/05/21 05:02:00;;;;;;;25.60;21.90;;;15.00;99.90;;;-141.84;75.03;20403.25;5033420;28;20643;-67
2023/05/21 05:04:29;;;;;;;27.17;23.17;;;15.00;99.90;;;-141.84;75.20;20395.13;5033722;28;20528;-68
2023/05/21 05:06:57;;;;;;;26.67;23.02;;;15.00;99.90;;;-141.84;74.45;20460.19;5033842;28;20293;-67
2023/05/21 05:09:25;;;;;;;24.30;21.67;;;15.10;99.90;;;-141.84;75.05;20433.75;5033223;28;20237;-68
2023/05/21 05:11:54;;;;;;;25.05;21.75;;;15.10;99.90;;;-141.84;74.94;20431.72;5033382;28;20294;-67
2023/05/21 05:14:22;;;;;;;24.52;21.73;;;15.20;99.90;;;-141.84;74.59;20447.97;5033166;28;20275;-67
2023/05/21 05:16:50;;;;;;;23.88;21.30;;;15.20;99.90;;;-141.84;74.30;20472.38;5033359;28;20349;-68
2023/05/21 05:19:18;;;;;;;26.00;22.52;;;15.30;99.90;;;-141.84;73.82;20452.06;5033056;28;20635;-70
2023/05/21 05:21:48;;;;;;;24.95;21.92;;;15.30;99.90;;;-141.84;73.93;20537.44;5033225;28;20229;-68
2023/05/21 05:24:16;;;;;;;26.73;22.02;;;15.30;99.90;;;-141.84;73.85;20474.41;5033294;28;20232;-68
2023/05/21 05:26:45;;;;;;;25.35;22.63;;;15.40;99.90;;;-141.84;73.29;20476.44;5032518;28;20306;-68
2023/05/21 05:29:14;;;;;;;25.08;22.40;;;15.40;99.90;;;-141.84;73.01;20508.97;5032833;28;20256;-68
2023/05/21 05:31:42;;;;;;;28.15;22.70;;;15.50;99.90;;;-141.84;72.31;20529.28;5032866;28;20212;-68
2023/05/21 05:34:10;;;;;;;26.63;22.75;;;15.70;99.90;;;-141.84;72.02;20557.75;5033078;28;20297;-68
2023/05/21 05:36:38;;;;;;;25.30;22.58;;;15.80;99.90;;;-141.84;71.18;20574.00;5032144;28;20544;-67
2023/05/21 05:39:08;;;;;;;23.10;20.70;;;15.90;99.90;;;-141.84;70.53;20600.44;5033016;28;20256;-68
2023/05/21 05:41:36;;;;;;;26.75;22.13;;;16.10;99.90;;;-141.84;70.04;20649.22;5033023;28;20296;-69
2023/05/21 05:44:04;;;;;;;25.50;21.63;;;16.30;99.90;;;-141.84;68.83;20689.88;5032402;28;20631;-67
2023/05/21 05:46:32;;;;;;;25.17;21.90;;;16.50;99.90;;;-141.84;68.14;20777.28;5032494;28;20213;-68
2023/05/21 05:49:01;;;;;;;24.15;21.40;;;16.80;99.90;;;-141.84;66.55;20797.63;5032408;28;20706;-67
2023/05/21 05:51:29;;;;;;;25.40;22.10;;;17.00;99.90;;;-141.84;66.19;20838.28;5032563;28;20289;-68
2023/05/21 05:53:58;;;;;;;24.42;21.80;;;17.30;99.90;;;-141.84;65.10;20907.41;5032497;28;20228;-68
2023/05/21 05:56:27;;;;;;;24.35;21.60;;;17.50;99.90;;;-141.84;64.52;20921.63;5032890;28;20577;-68
2023/05/21 05:58:55;;;;;;;23.48;21.00;;;17.70;99.90;;;-141.84;64.25;20944.00;5050678;28;20215;-68
2023/05/21 06:01:25;;;;;;;23.20;20.83;;;17.80;99.90;;;-141.84;64.12;20984.66;5052149;28;20202;-68
2023/05/21 06:03:53;;;;;;;22.70;20.20;;;17.90;99.90;;;-141.84;63.76;20960.25;5052460;28;20255;-68
2023/05/21 06:06:21;;;;;;;22.17;19.85;;;18.10;99.90;;;-141.84;63.56;21009.03;5042259;28;20202;-67
2023/05/21 06:08:49;;;;;;;23.05;20.63;;;18.20;99.90;;;-141.84;63.42;21004.97;5032408;28;20245;-67
2023/05/21 06:11:17;;;;;;;21.83;18.92;;;18.20;99.90;;;-141.84;63.64;21039.53;5032516;28;20212;-67
2023/05/21 06:13:47;;;;;;;22.58;20.27;;;18.40;99.90;;;-141.84;62.27;21090.38;5032219;28;20226;-68
2023/05/21 06:16:15;;;;;;;21.38;19.13;;;18.60;99.90;;;-141.84;62.41;21078.16;5032261;28;20569;-68
2023/05/21 06:18:43;;;;;;;20.40;18.38;;;18.70;99.90;;;-141.84;62.34;21106.63;5032189;28;20202;-68
2023/05/21 06:21:12;;;;;;;22.02;19.73;;;18.70;99.90;;;-141.84;61.85;21118.84;5032228;28;20213;-68
2023/05/21 06:23:40;;;;;;;22.02;19.83;;;18.80;99.90;;;-141.84;62.07;21098.50;5032225;28;20511;-68
2023/05/21 06:26:08;;;;;;;22.50;20.20;;;18.70;99.90;;;-141.84;62.06;21090.38;5032110;28;20285;-68
2023/05/21 06:28:36;;;;;;;21.70;19.40;;;18.80;99.90;;;-141.84;62.21;21126.97;5047699;28;20209;-67
2023/05/21 06:31:06;;;;;;;22.45;20.15;;;18.80;99.90;;;-141.84;62.23;21110.69;5051744;28;20689;-67
2023/05/21 06:33:34;;;;;;;21.83;19.50;;;18.80;99.90;;;-141.84;62.25;21104.59;5051577;28;20237;-67
2023/05/21 06:36:02;;;;;;;21.65;19.45;;;18.90;99.90;;;-141.84;62.16;21108.66;5043197;28;20670;-69
2023/05/21 06:38:30;;;;;;;22.00;18.63;;;18.90;99.90;;;-141.84;61.67;21137.13;5031939;28;20206;-67
2023/05/21 06:40:58;;;;;;;21.48;19.30;;;18.90;99.90;;;-141.84;62.00;21175.75;5031909;28;20259;-67
2023/05/21 06:43:27;;;;;;;22.27;18.98;;;18.90;99.90;;;-141.84;61.68;21157.47;5031191;28;20209;-68
2023/05/21 06:45:55;;;;;;;20.63;18.63;;;19.00;99.90;;;-141.84;62.63;21167.63;5031656;28;20345;-69
2023/05/21 06:48:25;;;;;;;20.88;18.67;;;19.10;99.90;;;-141.84;62.58;21161.53;5031788;28;20272;-68
2023/05/21 06:50:53;;;;;;;20.27;18.27;;;19.10;99.90;;;-141.84;61.66;21208.28;5032134;28;20236;-67
2023/05/21 06:53:21;;;;;;;22.30;19.42;;;19.20;99.90;;;-141.84;61.52;21232.69;5031902;28;20234;-68
2023/05/21 06:55:52;;;;;;;21.38;19.08;;;19.40;99.90;;;-141.84;61.75;21240.81;5031594;28;20427;-68
2023/05/21 06:58:21;;;;;;;20.73;18.70;;;19.50;99.90;;;-141.84;60.75;21287.56;5045201;28;20205;-70
2023/05/21 07:00:49;;;;;;;21.20;19.10;;;19.70;99.90;;;-141.84;60.59;21297.75;5051532;28;20201;-67
2023/05/21 07:03:17;;;;;;;22.30;19.98;;;19.80;99.90;;;-141.84;60.53;21299.78;5035582;28;20734;-68
2023/05/21 07:05:47;;;;;;;21.80;19.67;;;19.90;99.90;;;-141.84;60.51;21316.03;5031434;28;20202;-68
2023/05/21 07:08:15;;;;;;;22.10;19.77;;;20.10;99.90;;;-141.84;59.78;21366.88;5031325;28;20285;-69
2023/05/21 07:10:43;;;;;;;22.42;19.95;;;20.10;99.90;;;-141.84;58.88;21425.84;5030454;28;20728;-69
2023/05/21 07:13:12;;;;;;;21.60;19.27;;;20.20;99.90;;;-141.84;59.43;21423.81;5031131;28;20209;-69
2023/05/21 07:15:40;;;;;;;22.80;20.48;;;20.40;99.90;;;-141.84;58.64;21476.66;5031035;28;20222;-67
2023/05/21 07:18:08;;;;;;;20.55;18.45;;;20.60;99.90;;;-141.84;58.32;21507.16;5031162;28;20209;-67
2023/05/21 07:20:36;;;;;;;23.27;19.73;;;20.70;99.90;;;-141.84;57.73;21539.69;5031066;28;20206;-69
2023/05/21 07:23:05;;;;;;;20.55;18.45;;;20.80;99.90;;;-141.84;57.85;21507.16;5031067;28;20212;-67
2023/05/21 07:25:34;;;;;;;21.05;19.00;;;20.90;99.90;;;-141.84;57.53;21525.47;5031183;28;20584;-68
2023/05/21 07:28:02;;;;;;;21.10;19.00;;;21.10;99.90;;;-141.84;57.70;21535.63;5041675;28;20205;-68
2023/05/21 07:30:33;;;;;;;20.83;18.58;;;21.00;99.90;;;-141.84;58.18;21525.47;5050692;28;20537;-68
2023/05/21 07:33:01;;;;;;;20.15;18.05;;;21.00;99.90;;;-141.84;58.35;21549.84;5050462;28;20308;-67
2023/05/21 07:35:29;;;;;;;20.42;18.35;;;21.10;99.90;;;-141.84;58.24;21537.66;5046913;28;20233;-69
2023/05/21 07:37:58;;;;;;;20.05;18.08;;;21.00;99.90;;;-141.84;58.20;21551.91;5030815;28;20198;-68
2023/05/21 07:40:27;;;;;;;21.52;19.23;;;21.00;99.90;;;-141.84;58.26;21486.81;5030767;28;20205;-68
2023/05/21 07:42:55;;;;;;;19.10;17.20;;;21.00;99.90;;;-141.84;58.42;21505.13;5030079;28;20658;-68
2023/05/21 07:45:24;;;;;;;19.67;17.77;;;20.90;99.90;;;-141.84;58.30;21513.25;5030687;28;20297;-69
2023/05/21 07:47:52;;;;;;;20.20;18.20;;;21.00;99.90;;;-141.84;58.25;21523.44;5030227;28;20688;-68
2023/05/21 07:50:21;;;;;;;19.45;17.45;;;21.00;99.90;;;-141.84;58.36;21533.59;5030638;28;20259;-67
2023/05/21 07:52:49;;;;;;;19.48;17.58;;;21.00;99.90;;;-141.84;59.04;21492.94;5030746;28;20289;-68
2023/05/21 07:55:17;;;;;;;21.40;19.13;;;21.00;99.90;;;-141.84;58.52;21529.53;5030392;28;20858;-67
2023/05/21 07:57:47;;;;;;;19.58;17.67;;;21.00;99.90;;;-141.84;58.23;21549.84;5038023;28;20296;-66
2023/05/21 08:00:16;;;;;;;20.42;18.33;;;21.10;99.90;;;-141.84;58.33;21592.56;5029124;28;20607;-67
2023/05/21 08:02:44;;;;;;;19.75;17.75;;;21.20;99.90;;;-141.84;58.12;21594.59;5030200;28;20201;-67
2023/05/21 08:05:12;;;;;;;19.52;17.63;;;21.30;99.90;;;-141.84;58.32;21574.25;5028827;28;20498;-65
2023/05/21 08:07:40;;;;;;;18.70;16.83;;;21.40;99.90;;;-141.84;58.44;21602.72;5027953;28;20210;-67
2023/05/21 08:10:09;;;;;;;18.73;16.83;;;21.40;99.90;;;-141.84;58.56;21614.94;5028898;28;20216;-65
2023/05/21 08:12:37;;;;;;;19.40;17.45;;;21.40;99.90;;;-141.84;57.67;21619.00;5029236;28;20264;-65
2023/05/21 08:15:08;;;;;;;19.65;17.65;;;21.50;99.90;;;-141.84;57.61;21625.09;5017340;28;20226;-66
2023/05/21 08:17:36;;;;;;;18.42;16.63;;;21.60;99.90;;;-141.84;56.98;21641.34;5013088;28;20201;-66
2023/05/21 08:20:06;;;;;;;18.50;16.70;;;21.60;99.90;;;-141.84;56.32;21680.00;5030355;28;20202;-65
2023/05/21 08:22:34;;;;;;;19.40;17.50;;;21.70;99.90;;;-141.84;56.70;21684.06;5030034;28;20204;-64
2023/05/21 08:25:02;;;;;;;19.15;17.15;;;21.70;99.90;;;-141.84;56.96;21688.13;5029820;28;20265;-66
2023/05/21 08:27:30;;;;;;;18.20;16.40;;;21.80;99.90;;;-141.84;56.60;21724.72;5036683;28;20236;-66
2023/05/21 08:29:58;;;;;;;19.60;17.70;;;21.90;99.90;;;-141.84;56.42;21732.84;5050211;28;20208;-66
2023/05/21 08:32:27;;;;;;;19.45;17.55;;;22.00;99.90;;;-141.84;56.05;21732.84;5049608;28;20225;-66
2023/05/21 08:34:56;;;;;;;18.90;17.10;;;22.00;99.90;;;-141.84;56.51;21724.72;5050045;28;20306;-65
2023/05/21 08:37:24;;;;;;;18.48;16.73;;;21.90;99.90;;;-141.84;55.91;21757.25;5028927;28;20290;-65
2023/05/21 08:39:52;;;;;;;18.63;16.65;;;22.00;99.90;;;-141.84;55.73;21771.50;5030500;28;20597;-65
2023/05/21 08:42:42;;;;;;;17.52;15.93;;;22.10;99.90;;;-141.84;55.25;21777.59;5030001;28;20225;-65
2023/05/21 08:45:13;;;;;;;17.60;15.82;;;22.20;99.90;;;-141.84;55.14;21820.28;5025708;28;20667;-65
2023/05/21 08:47:45;;;;;;;18.30;16.60;;;22.30;99.90;;;-141.84;54.63;21822.31;5028456;28;20318;-66
2023/05/21 08:50:18;;;;;;;18.00;16.10;;;22.40;99.90;;;-141.84;54.65;21842.66;5017643;28;20239;-66
2023/05/21 08:52:46;;;;;;;17.90;16.02;;;22.40;99.90;;;-141.84;54.70;21826.41;5022001;28;20207;-66
2023/05/21 08:55:16;;;;;;;18.45;16.65;;;22.50;99.90;;;-141.84;54.80;21836.56;5022051;28;20318;-66
2023/05/21 08:57:45;;;;;;;17.67;15.98;;;22.50;99.90;;;-141.84;54.57;21846.72;5043972;28;20205;-65
2023/05/21 09:00:14;;;;;;;18.45;16.63;;;22.60;99.90;;;-141.84;55.15;21871.13;5022300;28;20746;-66
2023/05/21 09:02:45;;;;;;;17.23;15.52;;;22.60;99.90;;;-141.84;54.95;21917.91;5009870;28;20229;-66
2023/05/21 09:05:15;;;;;;;17.45;15.85;;;22.70;99.90;;;-141.84;53.58;21934.16;5010254;28;20245;-66
2023/05/21 09:07:50;;;;;;;18.27;16.58;;;22.80;99.90;;;-141.84;53.75;21944.34;5023768;28;20238;-66
2023/05/21 09:10:26;;;;;;;17.88;16.05;;;22.80;99.90;;;-141.84;53.46;21991.09;5029835;28;20190;-66
2023/05/21 09:12:55;;;;;;;17.65;15.95;;;22.90;99.90;;;-141.84;52.99;21962.63;5031327;28;20658;-64
2023/05/21 09:15:23;;;;;;;17.75;15.98;;;23.00;99.90;;;-141.84;53.16;21985.00;5032764;28;20248;-65
2023/05/21 09:17:53;;;;;;;17.13;15.50;;;23.00;99.90;;;-141.84;53.70;21964.66;5032966;28;20296;-66
2023/05/21 09:20:25;;;;;;;17.15;15.45;;;23.10;99.90;;;-141.84;53.37;22011.44;5033089;28;20724;-66
2023/05/21 09:22:54;;;;;;;17.45;15.82;;;23.10;99.90;;;-141.84;52.84;22029.75;5033106;28;20233;-66
2023/05/21 09:25:26;;;;;;;17.33;15.65;;;23.20;99.90;;;-141.84;53.42;22007.38;5033058;28;20241;-66
2023/05/21 09:27:56;;;;;;;18.70;16.73;;;23.30;99.90;;;-141.84;52.79;22037.88;5042988;28;20201;-67
2023/05/21 09:30:25;;;;;;;17.40;15.80;;;23.30;99.90;;;-141.84;52.74;22033.81;5052232;28;20198;-66
2023/05/21 09:33:00;;;;;;;18.05;16.30;;;23.30;99.90;;;-141.84;53.03;22072.44;5018290;28;20235;-66
2023/05/21 09:35:29;;;;;;;18.40;16.58;;;23.40;99.90;;;-141.84;52.99;22062.28;5027933;28;20662;-65
2023/05/21 09:37:57;;;;;;;17.58;15.90;;;23.50;99.90;;;-141.84;53.15;22088.72;5048926;28;20288;-54
2023/05/21 09:40:25;;;;;;;17.35;15.55;;;23.50;99.90;;;-141.84;51.95;22107.00;5052703;28;20768;-52
2023/05/21 09:42:55;;;;;;;16.83;15.13;;;23.60;99.90;;;-141.84;51.45;22145.66;5033930;28;20238;-55
2023/05/21 09:45:25;;;;;;;17.55;15.77;;;23.70;99.90;;;-141.84;51.42;22210.72;5032715;28;20306;-55
2023/05/21 09:47:55;;;;;;;16.90;15.40;;;23.90;99.90;;;-141.84;51.23;22224.97;5031988;28;20187;-56
2023/05/21 09:50:27;;;;;;;17.30;15.68;;;23.90;99.90;;;-141.84;51.31;22229.03;5032755;28;20204;-56
2023/05/21 09:52:57;;;;;;;15.88;14.45;;;23.90;99.90;;;-141.84;51.34;22182.25;5029597;28;20246;-56
2023/05/21 09:55:26;;;;;;;18.23;15.35;;;23.90;99.90;;;-141.84;51.47;22214.78;5030729;28;20293;-58
2023/05/21 09:57:54;;;;;;;17.50;15.90;;;24.00;99.90;;;-141.84;51.49;22206.66;5035991;28;20210;-58
2023/05/21 10:00:26;;;;;;;17.17;15.52;;;24.00;99.90;;;-141.84;51.30;22237.16;5030514;28;20716;-57